sensor_id;sensor_type;location;lat;lon;timestamp;P1;durP1;ratioP1;P2;durP2;ratioP2
28003;SDS011;15330;51.234;6.754;2023-03-19T00:01:42;9.73;;;3.78;;
28003;SDS011;15330;51.234;6.754;2023-03-19T00:04:07;6.07;;;3.83;;
28003;SDS011;15330;51.234;6.754;2023-03-19T00:06:33;8.13;;;3.90;;
28003;SDS011;15330;51.234;6.754;2023-03-19T00:08:58;6.47;;;4.32;;
28003;SDS011;15330;51.234;6.754;2023-03-19T00:11:24;8.30;;;3.78;;
28003;SDS011;15330;51.234;6.754;2023-03-19T00:13:49;10.60;;;4.50;;
28003;SDS011;15330;51.234;6.754;2023-03-19T00:16:15;10.75;;;4.45;;
28003;SDS011;15330;51.234;6.754;2023-03-19T00:18:41;8.48;;;4.10;;
28003;SDS011;15330;51.234;6.754;2023-03-19T00:21:06;10.77;;;4.10;;
28003;SDS011;15330;51.234;6.754;2023-03-19T00:23:32;9.40;;;5.10;;
28003;SDS011;15330;51.234;6.754;2023-03-19T00:25:58;8.35;;;4.40;;
28003;SDS011;15330;51.234;6.754;2023-03-19T00:28:23;5.90;;;3.83;;
28003;SDS011;15330;51.234;6.754;2023-03-19T00:30:49;9.52;;;4.90;;
28003;SDS011;15330;51.234;6.754;2023-03-19T00:33:15;8.45;;;5.07;;
28003;SDS011;15330;51.234;6.754;2023-03-19T00:35:40;12.07;;;4.10;;
28003;SDS011;15330;51.234;6.754;2023-03-19T00:38:06;6.43;;;4.03;;
28003;SDS011;15330;51.234;6.754;2023-03-19T00:40:31;7.38;;;4.60;;
28003;SDS011;15330;51.234;6.754;2023-03-19T00:42:57;9.82;;;4.50;;
28003;SDS011;15330;51.234;6.754;2023-03-19T00:45:23;4.97;;;3.70;;
28003;SDS011;15330;51.234;6.754;2023-03-19T00:47:48;9.80;;;5.10;;
28003;SDS011;15330;51.234;6.754;2023-03-19T00:50:13;7.00;;;4.45;;
28003;SDS011;15330;51.234;6.754;2023-03-19T00:52:39;10.40;;;4.57;;
28003;SDS011;15330;51.234;6.754;2023-03-19T00:55:05;11.50;;;4.10;;
28003;SDS011;15330;51.234;6.754;2023-03-19T00:57:30;7.97;;;4.63;;
28003;SDS011;15330;51.234;6.754;2023-03-19T00:59:56;9.48;;;5.45;;
28003;SDS011;15330;51.234;6.754;2023-03-19T01:02:21;8.30;;;4.70;;
28003;SDS011;15330;51.234;6.754;2023-03-19T01:04:47;8.15;;;4.20;;
28003;SDS011;15330;51.234;6.754;2023-03-19T01:07:13;8.93;;;4.28;;
28003;SDS011;15330;51.234;6.754;2023-03-19T01:09:38;9.00;;;4.95;;
28003;SDS011;15330;51.234;6.754;2023-03-19T01:12:05;10.02;;;4.80;;
28003;SDS011;15330;51.234;6.754;2023-03-19T01:14:31;8.38;;;4.28;;
28003;SDS011;15330;51.234;6.754;2023-03-19T01:16:57;11.20;;;4.47;;
28003;SDS011;15330;51.234;6.754;2023-03-19T01:19:22;9.57;;;5.47;;
28003;SDS011;15330;51.234;6.754;2023-03-19T01:21:48;9.25;;;5.07;;
28003;SDS011;15330;51.234;6.754;2023-03-19T01:24:14;9.63;;;5.05;;
28003;SDS011;15330;51.234;6.754;2023-03-19T01:26:40;10.65;;;5.20;;
28003;SDS011;15330;51.234;6.754;2023-03-19T01:29:06;11.32;;;4.90;;
28003;SDS011;15330;51.234;6.754;2023-03-19T01:31:32;7.90;;;5.30;;
28003;SDS011;15330;51.234;6.754;2023-03-19T01:33:58;7.90;;;4.68;;
28003;SDS011;15330;51.234;6.754;2023-03-19T01:36:23;6.78;;;4.30;;
28003;SDS011;15330;51.234;6.754;2023-03-19T01:38:49;8.25;;;4.80;;
28003;SDS011;15330;51.234;6.754;2023-03-19T01:41:15;7.97;;;5.28;;
28003;SDS011;15330;51.234;6.754;2023-03-19T01:43:41;11.15;;;5.97;;
28003;SDS011;15330;51.234;6.754;2023-03-19T01:46:13;8.30;;;4.82;;
28003;SDS011;15330;51.234;6.754;2023-03-19T01:48:48;11.23;;;6.13;;
28003;SDS011;15330;51.234;6.754;2023-03-19T01:51:25;10.82;;;5.53;;
28003;SDS011;15330;51.234;6.754;2023-03-19T01:53:58;9.15;;;5.82;;
28003;SDS011;15330;51.234;6.754;2023-03-19T01:56:30;9.33;;;5.97;;
28003;SDS011;15330;51.234;6.754;2023-03-19T01:59:03;9.63;;;5.53;;
28003;SDS011;15330;51.234;6.754;2023-03-19T02:01:33;10.73;;;5.25;;
28003;SDS011;15330;51.234;6.754;2023-03-19T02:04:05;8.52;;;5.05;;
28003;SDS011;15330;51.234;6.754;2023-03-19T02:06:31;11.40;;;5.63;;
28003;SDS011;15330;51.234;6.754;2023-03-19T02:08:57;8.43;;;5.35;;
28003;SDS011;15330;51.234;6.754;2023-03-19T02:11:23;10.60;;;5.82;;
28003;SDS011;15330;51.234;6.754;2023-03-19T02:13:50;9.48;;;5.05;;
28003;SDS011;15330;51.234;6.754;2023-03-19T02:16:15;12.23;;;5.53;;
28003;SDS011;15330;51.234;6.754;2023-03-19T02:18:41;9.63;;;5.50;;
28003;SDS011;15330;51.234;6.754;2023-03-19T02:21:07;11.40;;;5.57;;
28003;SDS011;15330;51.234;6.754;2023-03-19T02:26:20;9.60;;;5.50;;
28003;SDS011;15330;51.234;6.754;2023-03-19T02:28:49;11.50;;;5.90;;
28003;SDS011;15330;51.234;6.754;2023-03-19T02:31:16;11.93;;;6.22;;
28003;SDS011;15330;51.234;6.754;2023-03-19T02:33:43;12.50;;;6.13;;
28003;SDS011;15330;51.234;6.754;2023-03-19T02:36:13;13.57;;;6.53;;
28003;SDS011;15330;51.234;6.754;2023-03-19T02:38:42;11.18;;;5.93;;
28003;SDS011;15330;51.234;6.754;2023-03-19T02:41:10;9.27;;;6.25;;
28003;SDS011;15330;51.234;6.754;2023-03-19T02:43:37;11.73;;;5.75;;
28003;SDS011;15330;51.234;6.754;2023-03-19T02:46:04;10.20;;;6.20;;
28003;SDS011;15330;51.234;6.754;2023-03-19T02:48:33;13.27;;;6.07;;
28003;SDS011;15330;51.234;6.754;2023-03-19T02:50:59;11.02;;;5.93;;
28003;SDS011;15330;51.234;6.754;2023-03-19T02:53:24;11.00;;;5.47;;
28003;SDS011;15330;51.234;6.754;2023-03-19T02:55:50;12.13;;;5.63;;
28003;SDS011;15330;51.234;6.754;2023-03-19T02:58:15;10.20;;;5.57;;
28003;SDS011;15330;51.234;6.754;2023-03-19T03:00:41;8.77;;;5.78;;
28003;SDS011;15330;51.234;6.754;2023-03-19T03:03:06;11.32;;;5.68;;
28003;SDS011;15330;51.234;6.754;2023-03-19T03:05:32;10.05;;;5.57;;
28003;SDS011;15330;51.234;6.754;2023-03-19T03:07:58;10.32;;;5.43;;
28003;SDS011;15330;51.234;6.754;2023-03-19T03:10:24;8.00;;;5.93;;
28003;SDS011;15330;51.234;6.754;2023-03-19T03:12:50;11.02;;;5.40;;
28003;SDS011;15330;51.234;6.754;2023-03-19T03:15:15;11.13;;;5.03;;
28003;SDS011;15330;51.234;6.754;2023-03-19T03:17:41;7.70;;;5.03;;
28003;SDS011;15330;51.234;6.754;2023-03-19T03:20:07;9.85;;;5.35;;
28003;SDS011;15330;51.234;6.754;2023-03-19T03:22:35;11.38;;;5.38;;
28003;SDS011;15330;51.234;6.754;2023-03-19T03:25:02;10.85;;;4.82;;
28003;SDS011;15330;51.234;6.754;2023-03-19T03:27:28;11.88;;;5.15;;
28003;SDS011;15330;51.234;6.754;2023-03-19T03:29:53;8.07;;;5.50;;
28003;SDS011;15330;51.234;6.754;2023-03-19T03:32:19;8.93;;;5.20;;
28003;SDS011;15330;51.234;6.754;2023-03-19T03:34:44;8.20;;;5.47;;
28003;SDS011;15330;51.234;6.754;2023-03-19T03:37:10;11.52;;;5.03;;
28003;SDS011;15330;51.234;6.754;2023-03-19T03:39:36;10.32;;;4.93;;
28003;SDS011;15330;51.234;6.754;2023-03-19T03:42:01;12.75;;;5.60;;
28003;SDS011;15330;51.234;6.754;2023-03-19T03:44:27;12.07;;;4.85;;
28003;SDS011;15330;51.234;6.754;2023-03-19T03:46:53;10.38;;;4.65;;
28003;SDS011;15330;51.234;6.754;2023-03-19T03:49:18;9.93;;;5.18;;
28003;SDS011;15330;51.234;6.754;2023-03-19T03:51:43;12.10;;;5.18;;
28003;SDS011;15330;51.234;6.754;2023-03-19T03:54:09;9.50;;;4.70;;
28003;SDS011;15330;51.234;6.754;2023-03-19T03:56:35;11.07;;;5.32;;
28003;SDS011;15330;51.234;6.754;2023-03-19T03:59:01;10.13;;;4.85;;
28003;SDS011;15330;51.234;6.754;2023-03-19T04:01:27;11.55;;;5.30;;
28003;SDS011;15330;51.234;6.754;2023-03-19T04:03:52;10.40;;;5.03;;
28003;SDS011;15330;51.234;6.754;2023-03-19T04:06:18;8.27;;;3.92;;
28003;SDS011;15330;51.234;6.754;2023-03-19T04:08:46;6.65;;;4.30;;
28003;SDS011;15330;51.234;6.754;2023-03-19T04:11:12;7.95;;;3.80;;
28003;SDS011;15330;51.234;6.754;2023-03-19T04:13:38;6.60;;;3.65;;
28003;SDS011;15330;51.234;6.754;2023-03-19T04:16:03;8.45;;;3.95;;
28003;SDS011;15330;51.234;6.754;2023-03-19T04:18:33;9.73;;;4.07;;
28003;SDS011;15330;51.234;6.754;2023-03-19T04:20:59;7.78;;;3.72;;
28003;SDS011;15330;51.234;6.754;2023-03-19T04:23:24;5.88;;;3.65;;
28003;SDS011;15330;51.234;6.754;2023-03-19T04:25:50;8.02;;;3.50;;
28003;SDS011;15330;51.234;6.754;2023-03-19T04:28:16;7.45;;;3.35;;
28003;SDS011;15330;51.234;6.754;2023-03-19T04:30:41;6.80;;;3.80;;
28003;SDS011;15330;51.234;6.754;2023-03-19T04:33:07;6.88;;;4.05;;
28003;SDS011;15330;51.234;6.754;2023-03-19T04:35:34;6.85;;;3.80;;
28003;SDS011;15330;51.234;6.754;2023-03-19T04:38:00;6.93;;;3.60;;
28003;SDS011;15330;51.234;6.754;2023-03-19T04:40:26;11.00;;;3.40;;
28003;SDS011;15330;51.234;6.754;2023-03-19T04:42:51;6.82;;;3.92;;
28003;SDS011;15330;51.234;6.754;2023-03-19T04:45:17;5.82;;;3.35;;
28003;SDS011;15330;51.234;6.754;2023-03-19T04:47:43;6.80;;;4.10;;
28003;SDS011;15330;51.234;6.754;2023-03-19T04:50:09;5.60;;;3.40;;
28003;SDS011;15330;51.234;6.754;2023-03-19T04:52:35;5.97;;;3.47;;
28003;SDS011;15330;51.234;6.754;2023-03-19T04:55:02;7.40;;;3.35;;
28003;SDS011;15330;51.234;6.754;2023-03-19T04:57:28;8.88;;;4.20;;
28003;SDS011;15330;51.234;6.754;2023-03-19T04:59:54;5.70;;;3.60;;
28003;SDS011;15330;51.234;6.754;2023-03-19T05:02:19;8.38;;;3.10;;
28003;SDS011;15330;51.234;6.754;2023-03-19T05:04:45;11.80;;;4.15;;
28003;SDS011;15330;51.234;6.754;2023-03-19T05:07:11;6.90;;;3.63;;
28003;SDS011;15330;51.234;6.754;2023-03-19T05:09:36;8.63;;;4.15;;
28003;SDS011;15330;51.234;6.754;2023-03-19T05:12:02;7.90;;;3.55;;
28003;SDS011;15330;51.234;6.754;2023-03-19T05:14:27;8.18;;;3.55;;
28003;SDS011;15330;51.234;6.754;2023-03-19T05:16:52;6.75;;;3.65;;
28003;SDS011;15330;51.234;6.754;2023-03-19T05:19:18;8.38;;;3.63;;
28003;SDS011;15330;51.234;6.754;2023-03-19T05:21:44;10.13;;;3.72;;
28003;SDS011;15330;51.234;6.754;2023-03-19T05:24:09;7.13;;;3.25;;
28003;SDS011;15330;51.234;6.754;2023-03-19T05:26:35;4.13;;;3.05;;
28003;SDS011;15330;51.234;6.754;2023-03-19T05:29:01;7.90;;;3.33;;
28003;SDS011;15330;51.234;6.754;2023-03-19T05:31:27;6.38;;;3.20;;
28003;SDS011;15330;51.234;6.754;2023-03-19T05:33:53;6.97;;;3.90;;
28003;SDS011;15330;51.234;6.754;2023-03-19T05:36:18;4.28;;;3.00;;
28003;SDS011;15330;51.234;6.754;2023-03-19T05:38:44;5.07;;;3.55;;
28003;SDS011;15330;51.234;6.754;2023-03-19T05:41:09;6.75;;;3.00;;
28003;SDS011;15330;51.234;6.754;2023-03-19T05:43:34;3.55;;;3.13;;
28003;SDS011;15330;51.234;6.754;2023-03-19T05:46:00;7.28;;;3.30;;
28003;SDS011;15330;51.234;6.754;2023-03-19T05:48:27;6.70;;;3.58;;
28003;SDS011;15330;51.234;6.754;2023-03-19T05:50:52;7.82;;;3.10;;
28003;SDS011;15330;51.234;6.754;2023-03-19T05:53:18;6.88;;;3.10;;
28003;SDS011;15330;51.234;6.754;2023-03-19T05:55:44;6.68;;;3.63;;
28003;SDS011;15330;51.234;6.754;2023-03-19T05:58:09;7.38;;;3.70;;
28003;SDS011;15330;51.234;6.754;2023-03-19T06:00:35;12.52;;;3.50;;
28003;SDS011;15330;51.234;6.754;2023-03-19T06:03:00;6.70;;;4.53;;
28003;SDS011;15330;51.234;6.754;2023-03-19T06:05:26;8.65;;;3.85;;
28003;SDS011;15330;51.234;6.754;2023-03-19T06:07:51;5.65;;;3.25;;
28003;SDS011;15330;51.234;6.754;2023-03-19T06:10:17;9.00;;;3.65;;
28003;SDS011;15330;51.234;6.754;2023-03-19T06:12:42;9.27;;;5.03;;
28003;SDS011;15330;51.234;6.754;2023-03-19T06:15:08;15.27;;;7.82;;
28003;SDS011;15330;51.234;6.754;2023-03-19T06:17:34;6.22;;;4.00;;
28003;SDS011;15330;51.234;6.754;2023-03-19T06:20:00;7.97;;;3.83;;
28003;SDS011;15330;51.234;6.754;2023-03-19T06:22:25;8.75;;;4.72;;
28003;SDS011;15330;51.234;6.754;2023-03-19T06:24:51;9.35;;;4.60;;
28003;SDS011;15330;51.234;6.754;2023-03-19T06:27:16;8.68;;;4.47;;
28003;SDS011;15330;51.234;6.754;2023-03-19T06:29:42;7.28;;;4.13;;
28003;SDS011;15330;51.234;6.754;2023-03-19T06:32:07;11.45;;;6.05;;
28003;SDS011;15330;51.234;6.754;2023-03-19T06:34:33;5.13;;;3.60;;
28003;SDS011;15330;51.234;6.754;2023-03-19T06:36:59;9.80;;;4.78;;
28003;SDS011;15330;51.234;6.754;2023-03-19T06:39:26;7.68;;;4.63;;
28003;SDS011;15330;51.234;6.754;2023-03-19T06:41:51;11.45;;;6.38;;
28003;SDS011;15330;51.234;6.754;2023-03-19T06:44:16;6.63;;;4.70;;
28003;SDS011;15330;51.234;6.754;2023-03-19T06:46:42;9.60;;;4.10;;
28003;SDS011;15330;51.234;6.754;2023-03-19T06:49:07;12.13;;;4.97;;
28003;SDS011;15330;51.234;6.754;2023-03-19T06:51:33;9.57;;;5.15;;
28003;SDS011;15330;51.234;6.754;2023-03-19T06:53:58;8.98;;;6.35;;
28003;SDS011;15330;51.234;6.754;2023-03-19T06:56:24;11.88;;;4.57;;
28003;SDS011;15330;51.234;6.754;2023-03-19T06:58:50;8.73;;;4.72;;
28003;SDS011;15330;51.234;6.754;2023-03-19T07:01:15;6.93;;;4.20;;
28003;SDS011;15330;51.234;6.754;2023-03-19T07:03:40;3.55;;;3.13;;
28003;SDS011;15330;51.234;6.754;2023-03-19T07:06:06;6.05;;;3.33;;
28003;SDS011;15330;51.234;6.754;2023-03-19T07:08:31;7.65;;;3.67;;
28003;SDS011;15330;51.234;6.754;2023-03-19T07:11:03;5.78;;;3.65;;
28003;SDS011;15330;51.234;6.754;2023-03-19T07:13:30;4.53;;;3.55;;
28003;SDS011;15330;51.234;6.754;2023-03-19T07:15:57;6.57;;;4.18;;
28003;SDS011;15330;51.234;6.754;2023-03-19T07:18:23;6.22;;;4.22;;
28003;SDS011;15330;51.234;6.754;2023-03-19T07:20:48;5.95;;;3.67;;
28003;SDS011;15330;51.234;6.754;2023-03-19T07:23:14;4.82;;;3.70;;
28003;SDS011;15330;51.234;6.754;2023-03-19T07:25:39;5.70;;;3.75;;
28003;SDS011;15330;51.234;6.754;2023-03-19T07:28:05;8.18;;;3.88;;
28003;SDS011;15330;51.234;6.754;2023-03-19T07:30:31;10.57;;;4.32;;
28003;SDS011;15330;51.234;6.754;2023-03-19T07:32:57;5.13;;;3.63;;
28003;SDS011;15330;51.234;6.754;2023-03-19T07:35:22;5.75;;;3.80;;
28003;SDS011;15330;51.234;6.754;2023-03-19T07:37:47;6.25;;;3.38;;
28003;SDS011;15330;51.234;6.754;2023-03-19T07:40:13;5.18;;;3.90;;
28003;SDS011;15330;51.234;6.754;2023-03-19T07:42:38;4.75;;;3.63;;
28003;SDS011;15330;51.234;6.754;2023-03-19T07:45:04;7.30;;;3.92;;
28003;SDS011;15330;51.234;6.754;2023-03-19T07:47:30;5.90;;;4.05;;
28003;SDS011;15330;51.234;6.754;2023-03-19T07:49:56;7.10;;;4.15;;
28003;SDS011;15330;51.234;6.754;2023-03-19T07:52:22;6.32;;;4.35;;
28003;SDS011;15330;51.234;6.754;2023-03-19T07:54:48;5.82;;;4.10;;
28003;SDS011;15330;51.234;6.754;2023-03-19T07:57:14;8.20;;;4.22;;
28003;SDS011;15330;51.234;6.754;2023-03-19T07:59:40;8.73;;;4.28;;
28003;SDS011;15330;51.234;6.754;2023-03-19T08:02:06;5.45;;;3.90;;
28003;SDS011;15330;51.234;6.754;2023-03-19T08:04:33;7.20;;;4.03;;
28003;SDS011;15330;51.234;6.754;2023-03-19T08:06:59;7.22;;;4.20;;
28003;SDS011;15330;51.234;6.754;2023-03-19T08:09:25;4.43;;;3.58;;
28003;SDS011;15330;51.234;6.754;2023-03-19T08:11:50;6.65;;;3.50;;
28003;SDS011;15330;51.234;6.754;2023-03-19T08:14:15;6.50;;;3.50;;
28003;SDS011;15330;51.234;6.754;2023-03-19T08:16:46;5.20;;;3.28;;
28003;SDS011;15330;51.234;6.754;2023-03-19T08:19:11;5.57;;;3.53;;
28003;SDS011;15330;51.234;6.754;2023-03-19T08:21:37;3.60;;;3.05;;
28003;SDS011;15330;51.234;6.754;2023-03-19T08:24:02;5.93;;;3.50;;
28003;SDS011;15330;51.234;6.754;2023-03-19T08:26:28;8.55;;;2.88;;
28003;SDS011;15330;51.234;6.754;2023-03-19T08:28:53;4.30;;;2.83;;
28003;SDS011;15330;51.234;6.754;2023-03-19T08:31:19;3.75;;;3.25;;
28003;SDS011;15330;51.234;6.754;2023-03-19T08:33:44;5.95;;;3.42;;
28003;SDS011;15330;51.234;6.754;2023-03-19T08:36:13;4.85;;;3.17;;
28003;SDS011;15330;51.234;6.754;2023-03-19T08:38:39;5.25;;;3.13;;
28003;SDS011;15330;51.234;6.754;2023-03-19T08:41:04;5.55;;;3.00;;
28003;SDS011;15330;51.234;6.754;2023-03-19T08:43:30;6.10;;;3.67;;
28003;SDS011;15330;51.234;6.754;2023-03-19T08:45:57;9.20;;;3.63;;
28003;SDS011;15330;51.234;6.754;2023-03-19T08:48:23;5.28;;;3.10;;
28003;SDS011;15330;51.234;6.754;2023-03-19T08:50:55;8.40;;;4.55;;
28003;SDS011;15330;51.234;6.754;2023-03-19T08:53:25;6.40;;;3.50;;
28003;SDS011;15330;51.234;6.754;2023-03-19T08:55:55;5.55;;;4.22;;
28003;SDS011;15330;51.234;6.754;2023-03-19T08:58:22;5.50;;;4.03;;
28003;SDS011;15330;51.234;6.754;2023-03-19T09:00:48;8.90;;;4.65;;
28003;SDS011;15330;51.234;6.754;2023-03-19T09:03:14;6.30;;;3.80;;
28003;SDS011;15330;51.234;6.754;2023-03-19T09:05:40;4.90;;;4.30;;
28003;SDS011;15330;51.234;6.754;2023-03-19T09:08:05;7.28;;;3.95;;
28003;SDS011;15330;51.234;6.754;2023-03-19T09:10:31;5.72;;;3.67;;
28003;SDS011;15330;51.234;6.754;2023-03-19T09:12:57;8.93;;;4.13;;
28003;SDS011;15330;51.234;6.754;2023-03-19T09:15:22;5.70;;;4.20;;
28003;SDS011;15330;51.234;6.754;2023-03-19T09:17:48;6.18;;;4.22;;
28003;SDS011;15330;51.234;6.754;2023-03-19T09:20:13;5.32;;;4.18;;
28003;SDS011;15330;51.234;6.754;2023-03-19T09:22:39;4.57;;;3.85;;
28003;SDS011;15330;51.234;6.754;2023-03-19T09:25:05;6.03;;;4.07;;
28003;SDS011;15330;51.234;6.754;2023-03-19T09:27:31;5.38;;;4.20;;
28003;SDS011;15330;51.234;6.754;2023-03-19T09:29:56;4.38;;;3.97;;
28003;SDS011;15330;51.234;6.754;2023-03-19T09:32:21;5.55;;;4.40;;
28003;SDS011;15330;51.234;6.754;2023-03-19T09:34:48;5.95;;;3.75;;
28003;SDS011;15330;51.234;6.754;2023-03-19T09:37:13;4.00;;;3.40;;
28003;SDS011;15330;51.234;6.754;2023-03-19T09:39:38;6.18;;;3.80;;
28003;SDS011;15330;51.234;6.754;2023-03-19T09:44:57;6.25;;;3.80;;
28003;SDS011;15330;51.234;6.754;2023-03-19T09:47:27;5.90;;;4.05;;
28003;SDS011;15330;51.234;6.754;2023-03-19T09:49:57;4.05;;;3.65;;
28003;SDS011;15330;51.234;6.754;2023-03-19T09:55:17;6.20;;;3.58;;
28003;SDS011;15330;51.234;6.754;2023-03-19T09:57:45;4.00;;;3.60;;
28003;SDS011;15330;51.234;6.754;2023-03-19T10:00:17;5.05;;;4.13;;
28003;SDS011;15330;51.234;6.754;2023-03-19T10:02:46;3.50;;;3.20;;
28003;SDS011;15330;51.234;6.754;2023-03-19T10:05:38;5.85;;;3.88;;
28003;SDS011;15330;51.234;6.754;2023-03-19T10:13:59;5.05;;;3.95;;
28003;SDS011;15330;51.234;6.754;2023-03-19T10:16:29;4.53;;;4.07;;
28003;SDS011;15330;51.234;6.754;2023-03-19T10:18:58;7.82;;;3.90;;
28003;SDS011;15330;51.234;6.754;2023-03-19T10:21:29;4.45;;;3.60;;
28003;SDS011;15330;51.234;6.754;2023-03-19T10:26:31;4.75;;;4.30;;
28003;SDS011;15330;51.234;6.754;2023-03-19T10:34:47;6.85;;;4.55;;
28003;SDS011;15330;51.234;6.754;2023-03-19T10:37:18;5.65;;;3.85;;
28003;SDS011;15330;51.234;6.754;2023-03-19T10:39:45;4.30;;;3.90;;
28003;SDS011;15330;51.234;6.754;2023-03-19T10:44:51;7.00;;;4.85;;
28003;SDS011;15330;51.234;6.754;2023-03-19T10:47:25;6.78;;;5.35;;
28003;SDS011;15330;51.234;6.754;2023-03-19T10:49:51;6.45;;;5.40;;
28003;SDS011;15330;51.234;6.754;2023-03-19T10:52:35;9.02;;;6.78;;
28003;SDS011;15330;51.234;6.754;2023-03-19T10:57:39;10.82;;;8.32;;
28003;SDS011;15330;51.234;6.754;2023-03-19T11:00:17;8.60;;;6.95;;
28003;SDS011;15330;51.234;6.754;2023-03-19T11:02:48;6.47;;;5.78;;
28003;SDS011;15330;51.234;6.754;2023-03-19T11:07:47;8.43;;;6.38;;
28003;SDS011;15330;51.234;6.754;2023-03-19T11:10:20;7.45;;;6.30;;
28003;SDS011;15330;51.234;6.754;2023-03-19T11:12:53;9.32;;;6.88;;
28003;SDS011;15330;51.234;6.754;2023-03-19T11:15:25;17.10;;;11.15;;
28003;SDS011;15330;51.234;6.754;2023-03-19T11:18:00;11.23;;;7.78;;
28003;SDS011;15330;51.234;6.754;2023-03-19T11:20:33;7.93;;;5.90;;
28003;SDS011;15330;51.234;6.754;2023-03-19T11:23:05;7.75;;;5.45;;
28003;SDS011;15330;51.234;6.754;2023-03-19T11:25:40;6.32;;;5.25;;
28003;SDS011;15330;51.234;6.754;2023-03-19T11:28:20;7.50;;;5.28;;
28003;SDS011;15330;51.234;6.754;2023-03-19T11:30:57;6.35;;;4.55;;
28003;SDS011;15330;51.234;6.754;2023-03-19T11:50:25;7.35;;;5.20;;
28003;SDS011;15330;51.234;6.754;2023-03-19T12:01:48;5.82;;;3.35;;
28003;SDS011;15330;51.234;6.754;2023-03-19T12:09:33;5.05;;;3.80;;
28003;SDS011;15330;51.234;6.754;2023-03-19T12:20:59;8.32;;;3.03;;
28003;SDS011;15330;51.234;6.754;2023-03-19T12:28:55;5.28;;;3.22;;
28003;SDS011;15330;51.234;6.754;2023-03-19T12:31:25;3.97;;;2.60;;
28003;SDS011;15330;51.234;6.754;2023-03-19T12:39:36;4.63;;;3.22;;
28003;SDS011;15330;51.234;6.754;2023-03-19T12:42:05;5.80;;;2.97;;
28003;SDS011;15330;51.234;6.754;2023-03-19T12:44:41;5.38;;;3.10;;
28003;SDS011;15330;51.234;6.754;2023-03-19T12:47:15;5.22;;;3.97;;
28003;SDS011;15330;51.234;6.754;2023-03-19T12:49:47;4.88;;;3.17;;
28003;SDS011;15330;51.234;6.754;2023-03-19T12:52:21;5.72;;;4.30;;
28003;SDS011;15330;51.234;6.754;2023-03-19T13:05:48;7.38;;;4.00;;
28003;SDS011;15330;51.234;6.754;2023-03-19T13:10:53;7.63;;;5.22;;
28003;SDS011;15330;51.234;6.754;2023-03-19T13:18:58;9.05;;;4.95;;
28003;SDS011;15330;51.234;6.754;2023-03-19T13:21:34;7.28;;;4.35;;
28003;SDS011;15330;51.234;6.754;2023-03-19T13:24:06;6.93;;;4.53;;
28003;SDS011;15330;51.234;6.754;2023-03-19T13:26:43;7.50;;;4.43;;
28003;SDS011;15330;51.234;6.754;2023-03-19T13:29:19;5.85;;;3.67;;
28003;SDS011;15330;51.234;6.754;2023-03-19T13:31:49;5.43;;;4.32;;
28003;SDS011;15330;51.234;6.754;2023-03-19T13:36:41;5.18;;;4.53;;
28003;SDS011;15330;51.234;6.754;2023-03-19T13:39:14;6.45;;;3.80;;
28003;SDS011;15330;51.234;6.754;2023-03-19T13:46:46;5.60;;;3.95;;
28003;SDS011;15330;51.234;6.754;2023-03-19T13:51:37;5.60;;;4.10;;
28003;SDS011;15330;51.234;6.754;2023-03-19T13:59:33;4.82;;;4.20;;
28003;SDS011;15330;51.234;6.754;2023-03-19T14:02:00;5.53;;;4.22;;
28003;SDS011;15330;51.234;6.754;2023-03-19T14:07:34;4.63;;;4.15;;
28003;SDS011;15330;51.234;6.754;2023-03-19T14:12:32;8.13;;;5.72;;
28003;SDS011;15330;51.234;6.754;2023-03-19T14:20:19;19.00;;;11.35;;
28003;SDS011;15330;51.234;6.754;2023-03-19T14:26:02;6.70;;;5.03;;
28003;SDS011;15330;51.234;6.754;2023-03-19T14:28:37;9.75;;;6.88;;
28003;SDS011;15330;51.234;6.754;2023-03-19T14:34:38;7.38;;;5.80;;
28003;SDS011;15330;51.234;6.754;2023-03-19T14:37:19;6.97;;;5.47;;
28003;SDS011;15330;51.234;6.754;2023-03-19T14:53:40;7.82;;;6.50;;
28003;SDS011;15330;51.234;6.754;2023-03-19T14:56:12;12.38;;;5.75;;
28003;SDS011;15330;51.234;6.754;2023-03-19T14:58:47;8.80;;;6.40;;
28003;SDS011;15330;51.234;6.754;2023-03-19T15:01:13;6.78;;;5.57;;
28003;SDS011;15330;51.234;6.754;2023-03-19T15:03:39;9.20;;;5.38;;
28003;SDS011;15330;51.234;6.754;2023-03-19T15:06:06;6.63;;;5.13;;
28003;SDS011;15330;51.234;6.754;2023-03-19T15:08:36;7.88;;;4.72;;
28003;SDS011;15330;51.234;6.754;2023-03-19T15:16:32;12.50;;;7.78;;
28003;SDS011;15330;51.234;6.754;2023-03-19T15:19:26;24.20;;;15.57;;
28003;SDS011;15330;51.234;6.754;2023-03-19T15:22:11;43.72;;;27.17;;
28003;SDS011;15330;51.234;6.754;2023-03-19T15:24:37;7.15;;;5.43;;
28003;SDS011;15330;51.234;6.754;2023-03-19T15:27:14;8.02;;;5.20;;
28003;SDS011;15330;51.234;6.754;2023-03-19T15:29:48;8.50;;;5.18;;
28003;SDS011;15330;51.234;6.754;2023-03-19T15:32:35;9.18;;;6.20;;
28003;SDS011;15330;51.234;6.754;2023-03-19T15:34:59;9.88;;;6.00;;
28003;SDS011;15330;51.234;6.754;2023-03-19T15:37:25;8.57;;;5.50;;
28003;SDS011;15330;51.234;6.754;2023-03-19T15:39:54;6.78;;;4.90;;
28003;SDS011;15330;51.234;6.754;2023-03-19T15:42:21;14.32;;;8.73;;
28003;SDS011;15330;51.234;6.754;2023-03-19T15:45:23;9.10;;;6.20;;
28003;SDS011;15330;51.234;6.754;2023-03-19T15:47:50;7.00;;;5.38;;
28003;SDS011;15330;51.234;6.754;2023-03-19T15:50:18;10.40;;;6.10;;
28003;SDS011;15330;51.234;6.754;2023-03-19T15:52:49;9.25;;;6.18;;
28003;SDS011;15330;51.234;6.754;2023-03-19T15:55:18;9.88;;;7.10;;
28003;SDS011;15330;51.234;6.754;2023-03-19T15:57:45;8.60;;;5.93;;
28003;SDS011;15330;51.234;6.754;2023-03-19T16:00:11;6.20;;;5.18;;
28003;SDS011;15330;51.234;6.754;2023-03-19T16:02:39;7.50;;;5.60;;
28003;SDS011;15330;51.234;6.754;2023-03-19T16:05:05;9.95;;;6.05;;
28003;SDS011;15330;51.234;6.754;2023-03-19T16:07:39;10.27;;;5.82;;
28003;SDS011;15330;51.234;6.754;2023-03-19T16:12:55;8.70;;;5.88;;
28003;SDS011;15330;51.234;6.754;2023-03-19T16:18:08;8.13;;;6.00;;
28003;SDS011;15330;51.234;6.754;2023-03-19T16:20:40;6.57;;;5.20;;
28003;SDS011;15330;51.234;6.754;2023-03-19T16:23:08;13.02;;;8.02;;
28003;SDS011;15330;51.234;6.754;2023-03-19T16:25:42;7.43;;;4.85;;
28003;SDS011;15330;51.234;6.754;2023-03-19T16:28:17;7.85;;;5.32;;
28003;SDS011;15330;51.234;6.754;2023-03-19T16:30:47;9.15;;;5.78;;
28003;SDS011;15330;51.234;6.754;2023-03-19T16:33:14;8.95;;;5.18;;
28003;SDS011;15330;51.234;6.754;2023-03-19T16:35:39;14.30;;;6.85;;
28003;SDS011;15330;51.234;6.754;2023-03-19T16:38:12;11.65;;;6.85;;
28003;SDS011;15330;51.234;6.754;2023-03-19T16:40:46;9.30;;;5.60;;
28003;SDS011;15330;51.234;6.754;2023-03-19T16:43:17;9.07;;;6.15;;
28003;SDS011;15330;51.234;6.754;2023-03-19T16:45:48;9.52;;;6.30;;
28003;SDS011;15330;51.234;6.754;2023-03-19T16:48:15;12.18;;;7.13;;
28003;SDS011;15330;51.234;6.754;2023-03-19T16:50:40;10.98;;;6.65;;
28003;SDS011;15330;51.234;6.754;2023-03-19T16:55:50;11.65;;;7.22;;
28003;SDS011;15330;51.234;6.754;2023-03-19T16:58:17;13.75;;;7.63;;
28003;SDS011;15330;51.234;6.754;2023-03-19T17:03:44;19.55;;;9.15;;
28003;SDS011;15330;51.234;6.754;2023-03-19T17:06:11;12.93;;;7.22;;
28003;SDS011;15330;51.234;6.754;2023-03-19T17:08:38;12.05;;;8.63;;
28003;SDS011;15330;51.234;6.754;2023-03-19T17:11:04;12.60;;;6.90;;
28003;SDS011;15330;51.234;6.754;2023-03-19T17:13:31;15.77;;;8.35;;
28003;SDS011;15330;51.234;6.754;2023-03-19T17:16:07;16.90;;;10.23;;
28003;SDS011;15330;51.234;6.754;2023-03-19T17:18:34;13.38;;;8.07;;
28003;SDS011;15330;51.234;6.754;2023-03-19T17:23:30;11.52;;;7.35;;
28003;SDS011;15330;51.234;6.754;2023-03-19T17:25:56;12.77;;;7.25;;
28003;SDS011;15330;51.234;6.754;2023-03-19T17:28:22;12.18;;;6.85;;
28003;SDS011;15330;51.234;6.754;2023-03-19T17:30:48;9.02;;;6.45;;
28003;SDS011;15330;51.234;6.754;2023-03-19T17:33:25;11.27;;;6.68;;